createdAt,value
2019-05-07T00:01:24.051Z,51.02
2019-05-07T00:06:29.601Z,51.43
2019-05-07T00:11:35.173Z,51.09
2019-05-07T00:16:42.449Z,51.30
2019-05-07T00:21:47.888Z,51.54
2019-05-07T00:26:54.027Z,51.59
2019-05-07T00:32:02.265Z,52.81
2019-05-07T00:37:22.042Z,52.87
2019-05-07T00:42:32.907Z,51.94
2019-05-07T00:47:42.616Z,52.08
2019-05-07T00:52:47.848Z,52.27
2019-05-07T00:57:53.322Z,52.11
2019-05-07T01:02:59.159Z,54.69
2019-05-07T01:08:05.839Z,53.53
2019-05-07T01:13:12.567Z,53.18
2019-05-07T01:18:18.712Z,52.31
2019-05-07T01:23:25.322Z,53.57
2019-05-07T01:28:32.956Z,52.38
2019-05-07T01:33:45.318Z,52.90
2019-05-07T01:38:52.236Z,52.56
2019-05-07T01:43:57.915Z,52.54
2019-05-07T01:49:04.702Z,53.15
2019-05-07T01:54:10.267Z,53.50
2019-05-07T01:59:16.119Z,53.19
2019-05-07T02:04:47.117Z,54.00
2019-05-07T02:09:58.326Z,53.61
2019-05-07T02:15:07.042Z,53.42
2019-05-07T02:20:13.185Z,54.19
2019-05-07T02:25:22.057Z,54.42
2019-05-07T02:30:27.150Z,54.10
2019-05-07T02:35:33.519Z,53.13
2019-05-07T02:40:44.746Z,52.68
2019-05-07T02:46:17.541Z,53.63
2019-05-07T02:51:14.306Z,53.63
2019-05-07T02:56:19.863Z,53.40
2019-05-07T03:01:25.535Z,53.58
2019-05-07T03:06:33.936Z,53.41
2019-05-07T03:11:39.791Z,54.01
2019-05-07T03:16:53.726Z,54.07
2019-05-07T03:21:57.882Z,54.17
2019-05-07T03:27:03.652Z,53.84
2019-05-07T03:32:38.838Z,53.62
2019-05-07T03:37:44.871Z,53.59
2019-05-07T03:42:53.202Z,53.77
2019-05-07T03:48:19.525Z,54.00
2019-05-07T03:53:25.303Z,53.99
2019-05-07T03:58:43.280Z,53.05
2019-05-07T04:03:55.084Z,53.17
2019-05-07T04:08:57.544Z,53.70
2019-05-07T04:14:06.467Z,53.74
2019-05-07T04:19:13.289Z,54.41
2019-05-07T04:24:29.886Z,52.40
2019-05-07T04:29:35.460Z,54.02
2019-05-07T04:34:54.075Z,53.82
2019-05-07T04:40:02.905Z,53.75
2019-05-07T04:45:09.118Z,53.14
2019-05-07T04:50:34.801Z,52.81
2019-05-07T04:55:25.161Z,53.36
2019-05-07T05:00:33.358Z,52.76
2019-05-07T05:05:38.328Z,52.68
2019-05-07T05:10:43.769Z,52.76
2019-05-07T05:15:49.312Z,53.11
2019-05-07T05:21:12.505Z,53.43
2019-05-07T05:26:21.879Z,53.44
2019-05-07T05:31:29.184Z,53.26
2019-05-07T05:36:34.674Z,53.45
2019-05-07T05:41:45.223Z,52.73
2019-05-07T05:46:52.537Z,53.25
2019-05-07T05:52:17.483Z,53.48
2019-05-07T05:57:51.942Z,53.37
2019-05-07T06:03:27.501Z,54.99
2019-05-07T06:08:43.404Z,55.46
2019-05-07T06:14:09.521Z,54.83
2019-05-07T06:19:23.627Z,54.38
2019-05-07T06:24:52.163Z,53.58
2019-05-07T06:29:57.754Z,53.30
2019-05-07T06:35:04.088Z,53.49
2019-05-07T06:40:30.162Z,51.89
2019-05-07T06:45:46.346Z,51.51
2019-05-07T06:50:58.445Z,51.06
2019-05-07T06:56:04.928Z,51.26
2019-05-07T07:01:35.376Z,51.66
2019-05-07T07:07:03.129Z,51.33
2019-05-07T07:12:13.055Z,51.59
2019-05-07T07:17:23.614Z,49.93
2019-05-07T07:22:31.327Z,49.38
2019-05-07T07:27:38.155Z,49.25
2019-05-07T07:32:46.428Z,50.64
2019-05-07T07:37:53.052Z,50.44
2019-05-07T07:43:03.083Z,50.36
2019-05-07T07:48:08.630Z,48.96
2019-05-07T07:53:15.729Z,48.72
2019-05-07T07:58:43.050Z,48.11
2019-05-07T08:03:48.512Z,49.00
2019-05-07T08:08:55.188Z,49.74
2019-05-07T08:14:02.304Z,49.63
2019-05-07T08:19:21.763Z,51.94
2019-05-07T08:24:22.579Z,52.81
2019-05-07T08:29:32.293Z,53.95
2019-05-07T08:34:44.908Z,53.63
2019-05-07T08:39:52.037Z,53.42
2019-05-07T08:45:11.995Z,53.50
2019-05-07T08:50:22.302Z,54.42
2019-05-07T08:55:27.863Z,53.75
2019-05-07T09:00:36.813Z,53.05
2019-05-07T09:05:42.683Z,51.39
2019-05-07T09:10:48.688Z,48.42
2019-05-07T09:15:55.863Z,46.69
2019-05-07T09:21:02.203Z,44.30
2019-05-07T09:26:10.467Z,45.35
2019-05-07T09:31:22.650Z,47.99
2019-05-07T09:36:34.461Z,55.08
2019-05-07T09:41:41.766Z,56.21
2019-05-07T09:46:47.526Z,54.83
2019-05-07T09:51:53.298Z,57.05
2019-05-07T09:56:58.893Z,58.64
2019-05-07T10:02:05.091Z,57.40
2019-05-07T10:07:12.633Z,55.42
2019-05-07T10:12:28.231Z,56.42
2019-05-07T10:17:40.207Z,55.96
2019-05-07T10:22:45.824Z,55.03
2019-05-07T10:27:53.210Z,53.63
2019-05-07T10:33:01.657Z,51.87
2019-05-07T10:38:07.200Z,55.91
2019-05-07T10:43:12.875Z,53.25
2019-05-07T10:48:25.188Z,57.82
2019-05-07T10:53:32.043Z,54.72
2019-05-07T10:58:38.278Z,52.97
2019-05-07T11:03:43.826Z,52.31
2019-05-07T11:08:51.405Z,52.94
2019-05-07T11:13:57.466Z,50.08
2019-05-07T11:19:04.924Z,50.75
2019-05-07T11:24:12.126Z,50.83
2019-05-07T11:29:17.950Z,52.64
2019-05-07T11:34:23.555Z,51.70
2019-05-07T11:39:29.127Z,54.52
2019-05-07T11:44:34.656Z,54.08
2019-05-07T11:49:58.269Z,53.76
2019-05-07T11:55:05.823Z,52.45
2019-05-07T12:00:23.620Z,51.53
2019-05-07T12:05:29.752Z,50.93
2019-05-07T12:10:35.291Z,47.18
2019-05-07T12:15:52.144Z,49.87
2019-05-07T12:21:02.466Z,49.75
2019-05-07T12:26:07.527Z,49.88
2019-05-07T12:31:31.177Z,50.39
2019-05-07T12:36:36.730Z,52.07
2019-05-07T12:41:42.284Z,49.00
2019-05-07T12:46:47.829Z,46.64
2019-05-07T12:52:18.823Z,49.39
2019-05-07T12:57:26.551Z,48.03
2019-05-07T13:02:43.949Z,46.24
2019-05-07T13:07:58.317Z,46.94
2019-05-07T13:13:04.094Z,45.89
2019-05-07T13:18:12.680Z,44.76
2019-05-07T13:23:22.493Z,47.37
2019-05-07T13:28:30.175Z,43.69
2019-05-07T13:33:37.507Z,41.36
2019-05-07T13:38:56.587Z,39.48
2019-05-07T13:44:35.147Z,38.59
2019-05-07T13:49:42.777Z,38.83
2019-05-07T13:54:48.492Z,39.02
2019-05-07T13:59:58.079Z,41.61
2019-05-07T14:05:03.829Z,42.61
2019-05-07T14:10:12.417Z,40.05
2019-05-07T14:15:17.322Z,38.94
2019-05-07T14:20:23.681Z,39.43
2019-05-07T14:25:29.190Z,40.12
2019-05-07T14:30:34.765Z,40.88
2019-05-07T14:35:49.125Z,40.12
2019-05-07T14:40:54.715Z,40.48
2019-05-07T14:46:02.719Z,40.58
2019-05-07T14:51:08.969Z,39.56
2019-05-07T14:56:16.646Z,39.01
2019-05-07T15:01:22.661Z,37.23
2019-05-07T15:06:46.744Z,36.59
2019-05-07T15:11:54.563Z,35.81
2019-05-07T15:17:09.479Z,39.44
2019-05-07T15:22:45.801Z,37.77
2019-05-07T15:27:38.764Z,38.28
2019-05-07T15:32:52.129Z,37.11
2019-05-07T15:37:59.682Z,36.82
2019-05-07T15:43:12.982Z,39.67
2019-05-07T15:48:18.935Z,36.66
2019-05-07T15:53:53.882Z,37.48
2019-05-07T15:58:59.444Z,37.49
2019-05-07T16:04:19.083Z,37.64
2019-05-07T16:09:16.993Z,37.00
2019-05-07T16:14:26.710Z,36.79
2019-05-07T16:19:35.144Z,36.30
2019-05-07T16:24:41.997Z,38.25
2019-05-07T16:29:52.520Z,39.02
2019-05-07T16:35:05.651Z,39.72
2019-05-07T16:40:12.818Z,39.96
2019-05-07T16:45:19.064Z,41.02
2019-05-07T16:50:37.842Z,41.45
2019-05-07T16:55:43.754Z,42.92
2019-05-07T17:00:54.065Z,42.96
2019-05-07T17:06:05.199Z,43.34
2019-05-07T17:11:12.455Z,44.20
2019-05-07T17:16:26.970Z,43.49
2019-05-07T17:21:42.894Z,44.87
2019-05-07T17:26:51.280Z,45.16
2019-05-07T17:31:57.329Z,43.85
2019-05-07T17:37:05.571Z,45.52
2019-05-07T17:47:21.847Z,44.99
2019-05-07T17:52:34.433Z,45.26
2019-05-07T17:57:41.778Z,46.07
2019-05-07T18:03:08.101Z,46.33
2019-05-07T18:08:17.212Z,46.80
2019-05-07T18:13:32.388Z,47.85
2019-05-07T18:18:38.056Z,48.26
2019-05-07T18:23:43.830Z,48.66
2019-05-07T18:28:54.871Z,48.61
2019-05-07T18:34:05.998Z,49.04
2019-05-07T18:39:19.918Z,49.45
2019-05-07T18:44:28.747Z,49.01
2019-05-07T18:49:35.313Z,48.73
2019-05-07T18:54:47.936Z,48.54
2019-05-07T18:59:56.218Z,48.68
2019-05-07T19:05:07.867Z,47.85
2019-05-07T19:10:39.564Z,49.07
2019-05-07T19:15:47.841Z,50.39
2019-05-07T19:20:54.031Z,48.93
2019-05-07T19:26:04.296Z,50.04
2019-05-07T19:31:12.704Z,50.30
2019-05-07T19:36:19.175Z,50.13
2019-05-07T19:41:25.318Z,49.23
2019-05-07T19:46:32.281Z,50.29
2019-05-07T19:51:42.907Z,50.15
2019-05-07T19:56:57.088Z,49.24
2019-05-07T20:02:12.249Z,49.97
2019-05-07T20:07:22.270Z,50.26
2019-05-07T20:12:36.367Z,51.12
2019-05-07T20:17:47.636Z,50.77
2019-05-07T20:22:59.396Z,51.01
2019-05-07T20:28:07.578Z,50.93
2019-05-07T20:33:14.531Z,50.59
2019-05-07T20:38:22.270Z,51.32
2019-05-07T20:43:27.928Z,51.37
2019-05-07T20:48:35.096Z,52.07
2019-05-07T20:54:17.355Z,51.73
2019-05-07T20:59:25.811Z,52.64
2019-05-07T21:04:33.058Z,52.53
2019-05-07T21:09:42.120Z,52.40
2019-05-07T21:14:47.720Z,51.72
2019-05-07T21:19:54.940Z,51.38
2019-05-07T21:25:02.687Z,52.04
2019-05-07T21:30:08.284Z,51.88
2019-05-07T21:35:14.918Z,52.73
2019-05-07T21:40:22.426Z,53.20
2019-05-07T21:45:28.141Z,52.80
2019-05-07T21:50:33.697Z,52.65
2019-05-07T21:56:01.721Z,53.41
2019-05-07T22:01:09.462Z,53.20
2019-05-07T22:06:22.481Z,52.83
2019-05-07T22:11:32.389Z,52.45
2019-05-07T22:16:39.162Z,52.34
2019-05-07T22:21:44.666Z,52.74
2019-05-07T22:26:50.169Z,54.03
2019-05-07T22:32:32.759Z,54.54
2019-05-07T22:37:46.601Z,56.06
2019-05-07T22:43:06.486Z,55.69
2019-05-07T22:48:12.324Z,55.78
2019-05-07T22:53:18.122Z,55.96
2019-05-07T22:58:38.000Z,56.15
2019-05-07T23:03:43.539Z,55.80
2019-05-07T23:08:52.901Z,56.09
2019-05-07T23:13:58.799Z,57.03
2019-05-07T23:19:07.624Z,56.70
2019-05-07T23:24:13.143Z,56.59
2019-05-07T23:29:18.636Z,56.80
2019-05-07T23:34:26.497Z,57.33
2019-05-07T23:39:34.101Z,57.46
2019-05-07T23:44:42.023Z,57.29
2019-05-07T23:49:52.396Z,57.38
2019-05-07T23:55:02.853Z,57.23
